createdAt,value
2022-12-05T00:01:25.780Z,25.25
2022-12-05T00:03:56.131Z,23.73
2022-12-05T00:06:23.786Z,24.92
2022-12-05T00:08:51.181Z,25.83
2022-12-05T00:11:24.926Z,24.13
2022-12-05T00:13:53.393Z,23.38
2022-12-05T00:16:23.043Z,23.92
2022-12-05T00:18:49.425Z,22.92
2022-12-05T00:21:27.357Z,22.98
2022-12-05T00:23:55.587Z,23.58
2022-12-05T00:26:22.273Z,23.35
2022-12-05T00:28:48.759Z,23.30
2022-12-05T00:31:19.991Z,24.70
2022-12-05T00:33:46.886Z,25.58
2022-12-05T00:36:19.171Z,23.45
2022-12-05T00:41:14.119Z,23.48
2022-12-05T00:43:41.060Z,24.08
2022-12-05T00:46:10.125Z,24.70
2022-12-05T00:48:37.063Z,25.88
2022-12-05T00:51:07.440Z,26.30
2022-12-05T00:53:34.150Z,25.90
2022-12-05T00:56:05.698Z,26.15
2022-12-05T00:58:32.799Z,25.95
2022-12-05T01:01:25.937Z,25.45
2022-12-05T01:03:54.339Z,25.23
2022-12-05T01:06:21.404Z,26.27
2022-12-05T01:08:47.973Z,24.75
2022-12-05T01:11:16.968Z,23.63
2022-12-05T01:13:43.739Z,25.15
2022-12-05T01:16:21.889Z,25.90
2022-12-05T01:18:48.802Z,27.10
2022-12-05T01:21:15.164Z,25.52
2022-12-05T01:23:41.516Z,26.92
2022-12-05T01:26:10.229Z,25.55
2022-12-05T01:28:36.874Z,25.70
2022-12-05T01:31:08.982Z,25.92
2022-12-05T01:33:35.657Z,26.15
2022-12-05T01:36:03.181Z,26.45
2022-12-05T01:38:29.663Z,26.17
2022-12-05T01:41:03.484Z,27.75
2022-12-05T01:43:30.077Z,25.95
2022-12-05T01:45:56.900Z,27.67
2022-12-05T01:48:27.744Z,25.77
2022-12-05T01:50:54.294Z,27.88
2022-12-05T01:53:21.184Z,27.65
2022-12-05T01:55:48.441Z,26.85
2022-12-05T01:58:15.163Z,27.30
2022-12-05T02:00:41.580Z,27.67
2022-12-05T02:03:09.892Z,27.20
2022-12-05T02:05:37.147Z,27.58
2022-12-05T02:08:07.685Z,27.77
2022-12-05T02:10:39.514Z,28.45
2022-12-05T02:13:32.312Z,28.63
2022-12-05T02:16:24.736Z,27.27
2022-12-05T02:19:24.500Z,24.98
2022-12-05T02:22:18.239Z,28.08
2022-12-05T02:24:54.437Z,27.52
2022-12-05T02:27:45.598Z,27.02
2022-12-05T02:30:20.380Z,25.83
2022-12-05T02:32:58.783Z,27.50
2022-12-05T02:35:46.713Z,26.35
2022-12-05T02:38:18.303Z,27.75
2022-12-05T02:41:04.631Z,27.92
2022-12-05T02:43:44.915Z,27.15
2022-12-05T02:46:13.790Z,28.42
2022-12-05T02:48:41.445Z,28.63
2022-12-05T02:51:09.129Z,27.88
2022-12-05T02:53:36.448Z,28.95
2022-12-05T02:56:04.024Z,27.13
2022-12-05T02:58:34.564Z,28.85
2022-12-05T03:01:01.144Z,29.20
2022-12-05T03:03:28.160Z,29.00
2022-12-05T03:06:09.560Z,28.45
2022-12-05T03:08:41.250Z,27.60
2022-12-05T03:11:07.773Z,28.52
2022-12-05T03:13:46.344Z,28.48
2022-12-05T03:16:21.518Z,27.33
2022-12-05T03:18:51.778Z,26.77
2022-12-05T03:21:30.273Z,28.67
2022-12-05T03:24:01.269Z,26.75
2022-12-05T03:26:51.565Z,27.52
2022-12-05T03:29:37.071Z,26.55
2022-12-05T03:32:06.393Z,26.38
2022-12-05T03:34:37.940Z,25.65
2022-12-05T03:37:08.397Z,26.05
2022-12-05T03:39:36.259Z,28.58
2022-12-05T03:42:20.278Z,25.25
2022-12-05T03:44:57.632Z,28.02
2022-12-05T03:47:29.625Z,26.92
2022-12-05T03:49:59.760Z,29.10
2022-12-05T03:53:18.010Z,26.55
2022-12-05T03:55:35.922Z,26.88
2022-12-05T03:58:07.356Z,26.55
2022-12-05T04:00:36.242Z,26.40
2022-12-05T04:03:14.305Z,28.00
2022-12-05T04:05:53.927Z,26.63
2022-12-05T04:08:24.949Z,25.67
2022-12-05T04:10:53.728Z,26.67
2022-12-05T04:13:23.892Z,27.35
2022-12-05T04:16:16.403Z,26.65
2022-12-05T04:21:29.435Z,26.00
2022-12-05T04:24:14.547Z,25.40
2022-12-05T04:26:45.768Z,26.20
2022-12-05T04:29:18.477Z,26.70
2022-12-05T04:31:48.252Z,25.15
2022-12-05T04:34:15.656Z,27.17
2022-12-05T04:36:47.635Z,26.67
2022-12-05T04:39:19.705Z,26.10
2022-12-05T04:41:50.613Z,27.15
2022-12-05T04:44:19.090Z,24.77
2022-12-05T04:46:47.144Z,23.95
2022-12-05T04:49:17.426Z,24.55
2022-12-05T04:51:45.464Z,26.42
2022-12-05T04:54:18.105Z,25.35
2022-12-05T04:56:46.042Z,25.00
2022-12-05T04:59:12.402Z,26.48
2022-12-05T05:01:55.547Z,25.00
2022-12-05T05:04:26.409Z,24.73
2022-12-05T05:06:52.912Z,23.42
2022-12-05T05:09:19.281Z,23.45
2022-12-05T05:11:45.713Z,24.35
2022-12-05T05:14:12.091Z,24.35
2022-12-05T05:16:40.908Z,24.27
2022-12-05T05:19:08.415Z,25.20
2022-12-05T05:21:37.723Z,22.45
2022-12-05T05:24:04.945Z,23.63
2022-12-05T05:26:34.009Z,23.67
2022-12-05T05:29:00.518Z,25.52
2022-12-05T05:31:27.019Z,24.15
2022-12-05T05:33:55.314Z,24.10
2022-12-05T05:36:23.249Z,23.85
2022-12-05T05:38:52.379Z,23.88
2022-12-05T05:41:24.669Z,23.63
2022-12-05T05:46:20.122Z,21.33
2022-12-05T05:48:46.821Z,21.88
2022-12-05T05:51:15.736Z,22.98
2022-12-05T05:53:42.552Z,21.13
2022-12-05T05:56:14.004Z,22.42
2022-12-05T05:58:42.553Z,23.58
2022-12-05T06:01:11.274Z,23.42
2022-12-05T06:03:38.631Z,23.45
2022-12-05T06:06:07.312Z,23.08
2022-12-05T06:08:35.108Z,22.92
2022-12-05T06:11:09.639Z,21.00
2022-12-05T06:13:36.371Z,23.35
2022-12-05T06:16:05.607Z,20.98
2022-12-05T06:18:32.043Z,21.88
2022-12-05T06:20:58.423Z,22.13
2022-12-05T06:23:25.647Z,23.15
2022-12-05T06:25:53.643Z,21.50
2022-12-05T06:28:21.540Z,21.60
2022-12-05T06:30:47.927Z,22.80
2022-12-05T06:33:14.635Z,24.08
2022-12-05T06:35:41.638Z,26.05
2022-12-05T06:38:08.001Z,22.35
2022-12-05T06:40:34.560Z,25.08
2022-12-05T06:43:01.088Z,22.20
2022-12-05T06:45:27.485Z,21.95
2022-12-05T06:47:54.066Z,22.52
2022-12-05T06:50:20.406Z,22.73
2022-12-05T06:52:46.775Z,23.85
2022-12-05T06:55:13.139Z,20.80
2022-12-05T06:57:39.562Z,23.00
2022-12-05T07:00:24.943Z,23.42
2022-12-05T07:02:52.103Z,23.88
2022-12-05T07:05:18.595Z,23.52
2022-12-05T07:07:45.454Z,24.65
2022-12-05T07:10:12.119Z,23.60
2022-12-05T07:12:38.492Z,23.60
2022-12-05T07:15:05.172Z,23.75
2022-12-05T07:17:36.272Z,22.85
2022-12-05T07:20:03.088Z,22.70
2022-12-05T07:22:29.457Z,23.23
2022-12-05T07:24:55.887Z,21.55
2022-12-05T07:27:27.274Z,23.15
2022-12-05T07:29:54.553Z,24.02
2022-12-05T07:32:21.044Z,22.88
2022-12-05T07:34:52.126Z,22.90
2022-12-05T07:37:21.253Z,23.23
2022-12-05T07:39:47.792Z,23.27
2022-12-05T07:42:14.158Z,23.05
2022-12-05T07:44:40.509Z,23.10
2022-12-05T07:47:06.853Z,22.00
2022-12-05T07:49:33.247Z,21.55
2022-12-05T07:51:59.586Z,19.00
2022-12-05T07:54:25.948Z,21.60
2022-12-05T07:56:52.293Z,19.95
2022-12-05T07:59:18.831Z,20.48
2022-12-05T08:01:45.334Z,19.98
2022-12-05T08:04:15.543Z,19.20
2022-12-05T08:06:42.271Z,20.98
2022-12-05T08:09:08.667Z,18.25
2022-12-05T08:11:36.017Z,19.77
2022-12-05T08:14:04.363Z,20.20
2022-12-05T08:16:32.074Z,20.10
2022-12-05T08:19:01.119Z,20.42
2022-12-05T08:21:28.057Z,18.90
2022-12-05T08:23:54.803Z,20.90
2022-12-05T08:26:27.303Z,19.65
2022-12-05T08:28:59.050Z,18.40
2022-12-05T08:31:28.801Z,19.20
2022-12-05T08:33:58.996Z,18.75
2022-12-05T08:36:26.965Z,18.92
2022-12-05T08:38:58.219Z,18.02
2022-12-05T08:41:28.450Z,19.10
2022-12-05T08:43:55.987Z,19.50
2022-12-05T08:46:22.519Z,20.80
2022-12-05T08:48:49.019Z,19.50
2022-12-05T08:51:15.422Z,18.45
2022-12-05T08:53:44.665Z,18.30
2022-12-05T08:56:11.715Z,19.40
2022-12-05T08:58:38.476Z,18.80
2022-12-05T09:01:16.884Z,19.45
2022-12-05T09:03:47.780Z,17.48
2022-12-05T09:06:20.686Z,18.90
2022-12-05T09:08:47.714Z,18.73
2022-12-05T09:11:16.732Z,18.35
2022-12-05T09:13:43.653Z,17.67
2022-12-05T09:16:12.776Z,17.67
2022-12-05T09:18:39.283Z,17.13
2022-12-05T09:21:11.244Z,17.95
2022-12-05T09:23:37.993Z,16.50
2022-12-05T09:26:06.046Z,18.35
2022-12-05T09:28:33.725Z,17.48
2022-12-05T09:31:05.757Z,17.63
2022-12-05T09:33:34.100Z,17.23
2022-12-05T09:36:15.724Z,18.75
2022-12-05T09:38:42.716Z,17.58
2022-12-05T09:41:15.148Z,17.30
2022-12-05T09:44:03.097Z,18.33
2022-12-05T09:46:37.981Z,17.23
2022-12-05T09:49:05.442Z,18.60
2022-12-05T09:51:32.409Z,19.20
2022-12-05T09:53:58.817Z,18.50
2022-12-05T09:56:30.633Z,18.38
2022-12-05T09:58:58.423Z,19.20
2022-12-05T10:01:42.412Z,17.63
2022-12-05T10:04:20.888Z,17.92
2022-12-05T10:06:50.404Z,18.25
2022-12-05T10:09:46.028Z,18.33
2022-12-05T10:12:36.122Z,18.42
2022-12-05T10:15:08.583Z,18.00
2022-12-05T10:17:37.193Z,18.25
2022-12-05T10:20:13.940Z,18.27
2022-12-05T10:23:28.200Z,18.45
2022-12-05T10:26:03.683Z,19.73
2022-12-05T10:28:50.298Z,21.27
2022-12-05T10:31:19.258Z,22.83
2022-12-05T10:33:53.075Z,23.05
2022-12-05T10:36:19.471Z,21.08
2022-12-05T10:38:46.180Z,22.60
2022-12-05T10:41:13.947Z,21.52
2022-12-05T10:43:44.201Z,23.10
2022-12-05T10:46:16.841Z,24.48
2022-12-05T10:48:43.848Z,21.77
2022-12-05T10:51:15.113Z,24.02
2022-12-05T10:53:51.294Z,21.55
2022-12-05T10:56:47.067Z,23.67
2022-12-05T10:59:16.312Z,22.13
2022-12-05T11:02:05.484Z,21.88
2022-12-05T11:04:42.335Z,24.20
2022-12-05T11:07:31.918Z,23.58
2022-12-05T11:10:05.724Z,24.02
2022-12-05T11:12:39.479Z,23.48
2022-12-05T11:15:19.440Z,23.15
2022-12-05T11:17:46.394Z,22.77
2022-12-05T11:20:15.673Z,22.05
2022-12-05T11:22:45.733Z,21.42
2022-12-05T11:25:24.572Z,22.75
2022-12-05T11:27:51.187Z,21.58
2022-12-05T11:30:23.165Z,21.70
2022-12-05T11:32:50.111Z,22.02
2022-12-05T11:35:16.394Z,22.70
2022-12-05T11:37:58.369Z,22.23
2022-12-05T11:40:39.805Z,22.02
2022-12-05T11:43:15.164Z,21.20
2022-12-05T11:46:04.181Z,22.23
2022-12-05T11:48:49.170Z,23.05
2022-12-05T11:51:29.074Z,22.08
2022-12-05T11:55:02.908Z,23.83
2022-12-05T11:57:51.977Z,22.88
2022-12-05T12:00:21.721Z,22.83
2022-12-05T12:03:18.689Z,22.98
2022-12-05T12:06:00.072Z,21.10
2022-12-05T12:08:29.024Z,20.75
2022-12-05T12:11:14.266Z,22.35
2022-12-05T12:14:04.536Z,22.27
2022-12-05T12:16:58.467Z,22.17
2022-12-05T12:19:30.470Z,22.42
2022-12-05T12:22:11.306Z,23.25
2022-12-05T12:24:52.801Z,24.27
2022-12-05T12:27:36.665Z,22.77
2022-12-05T12:30:16.732Z,21.17
2022-12-05T12:33:03.556Z,22.10
2022-12-05T12:35:53.366Z,19.73
2022-12-05T12:38:35.524Z,19.85
2022-12-05T12:41:09.423Z,21.10
2022-12-05T12:44:16.156Z,20.45
2022-12-05T12:46:53.060Z,19.17
2022-12-05T12:49:34.631Z,18.80
2022-12-05T12:52:11.507Z,18.03
2022-12-05T12:55:04.454Z,17.48
2022-12-05T12:57:58.784Z,16.77
2022-12-05T13:00:49.870Z,18.15
2022-12-05T13:03:46.090Z,19.42
2022-12-05T13:06:33.965Z,19.20
2022-12-05T13:09:07.818Z,20.40
2022-12-05T13:11:37.550Z,19.92
2022-12-05T13:14:04.842Z,19.88
2022-12-05T13:16:34.738Z,20.20
2022-12-05T13:19:02.553Z,20.08
2022-12-05T13:21:29.711Z,20.48
2022-12-05T13:24:03.125Z,19.85
2022-12-05T13:26:31.302Z,21.05
2022-12-05T13:28:59.738Z,19.45
2022-12-05T13:31:40.301Z,19.80
2022-12-05T13:34:07.068Z,19.70
2022-12-05T13:36:59.125Z,20.90
2022-12-05T13:39:44.018Z,14.20
2022-12-05T13:42:22.676Z,20.60
2022-12-05T13:45:04.672Z,18.67
2022-12-05T13:48:03.275Z,20.60
2022-12-05T13:50:49.983Z,20.65
2022-12-05T13:53:22.516Z,20.83
2022-12-05T13:56:15.182Z,21.55
2022-12-05T14:01:25.073Z,19.92
2022-12-05T14:03:51.403Z,19.95
2022-12-05T14:06:38.733Z,20.08
2022-12-05T14:09:05.097Z,18.75
2022-12-05T14:11:31.604Z,19.17
2022-12-05T14:14:03.916Z,18.65
2022-12-05T14:16:31.051Z,18.70
2022-12-05T14:19:11.068Z,19.27
2022-12-05T14:21:43.087Z,19.08
2022-12-05T14:24:32.367Z,19.50
2022-12-05T14:27:17.826Z,18.73
2022-12-05T14:30:05.057Z,17.92
2022-12-05T14:32:34.160Z,18.63
2022-12-05T14:35:00.681Z,18.95
2022-12-05T14:37:29.970Z,18.83
2022-12-05T14:40:01.153Z,18.65
2022-12-05T14:42:38.811Z,17.38
2022-12-05T14:45:23.365Z,19.73
2022-12-05T14:47:55.827Z,18.80
2022-12-05T14:50:40.887Z,18.23
2022-12-05T14:53:39.297Z,17.67
2022-12-05T14:56:25.845Z,17.42
2022-12-05T14:59:01.372Z,18.90
2022-12-05T15:01:31.620Z,17.45
2022-12-05T15:04:20.740Z,18.27
2022-12-05T15:06:52.553Z,17.65
2022-12-05T15:09:37.938Z,19.45
2022-12-05T15:12:09.757Z,17.25
2022-12-05T15:14:44.534Z,17.50
2022-12-05T15:17:14.707Z,18.88
2022-12-05T15:20:03.655Z,19.60
2022-12-05T15:22:33.774Z,18.20
2022-12-05T15:25:15.022Z,18.65
2022-12-05T15:27:41.488Z,20.15
2022-12-05T15:30:16.427Z,19.08
2022-12-05T15:32:42.852Z,19.92
2022-12-05T15:35:14.025Z,20.17
2022-12-05T15:38:01.627Z,19.33
2022-12-05T15:40:37.282Z,20.77
2022-12-05T15:43:26.846Z,21.42
2022-12-05T15:46:07.184Z,20.70
2022-12-05T15:48:34.222Z,21.05
2022-12-05T15:51:00.877Z,20.70
2022-12-05T15:53:34.373Z,21.65
2022-12-05T15:56:15.894Z,21.80
2022-12-05T15:58:45.900Z,21.30
2022-12-05T16:01:19.021Z,20.88
2022-12-05T16:03:54.602Z,20.30
2022-12-05T16:06:28.329Z,20.83
2022-12-05T16:08:56.050Z,19.52
2022-12-05T16:11:22.647Z,18.90
2022-12-05T16:13:55.614Z,18.05
2022-12-05T16:16:23.985Z,18.92
2022-12-05T16:18:54.401Z,18.65
2022-12-05T16:21:38.856Z,18.75
2022-12-05T16:24:11.593Z,19.58
2022-12-05T16:26:39.581Z,18.73
2022-12-05T16:29:06.010Z,17.80
2022-12-05T16:31:33.760Z,18.77
2022-12-05T16:34:05.627Z,17.58
2022-12-05T16:36:32.732Z,18.38
2022-12-05T16:39:07.135Z,18.90
2022-12-05T16:41:38.614Z,18.35
2022-12-05T16:44:16.205Z,19.27
2022-12-05T16:46:45.785Z,18.40
2022-12-05T16:49:22.642Z,19.08
2022-12-05T16:52:07.322Z,17.40
2022-12-05T16:54:33.704Z,19.33
2022-12-05T16:57:01.088Z,18.95
2022-12-05T16:59:35.664Z,18.50
2022-12-05T17:02:03.201Z,20.40
2022-12-05T17:04:29.739Z,20.10
2022-12-05T17:06:56.159Z,19.35
2022-12-05T17:09:22.528Z,20.13
2022-12-05T17:11:51.031Z,20.08
2022-12-05T17:14:18.087Z,20.25
2022-12-05T17:16:44.967Z,21.45
2022-12-05T17:19:11.883Z,21.40
2022-12-05T17:21:40.024Z,21.85
2022-12-05T17:24:06.697Z,20.38
2022-12-05T17:26:33.221Z,21.85
2022-12-05T17:28:59.587Z,21.98
2022-12-05T17:31:26.096Z,21.50
2022-12-05T17:33:53.959Z,21.77
2022-12-05T17:36:21.090Z,22.63
2022-12-05T17:38:47.624Z,22.10
2022-12-05T17:41:19.233Z,22.20
2022-12-05T17:43:46.433Z,24.05
2022-12-05T17:46:18.834Z,23.77
2022-12-05T17:48:46.790Z,25.95
2022-12-05T17:51:14.559Z,24.52
2022-12-05T17:53:42.081Z,28.10
2022-12-05T17:56:08.901Z,32.55
2022-12-05T17:58:35.325Z,27.10
2022-12-05T18:01:02.357Z,36.65
2022-12-05T18:03:28.951Z,33.75
2022-12-05T18:05:55.390Z,30.08
2022-12-05T18:08:22.031Z,25.23
2022-12-05T18:10:49.834Z,22.30
2022-12-05T18:13:16.449Z,25.45
2022-12-05T18:15:43.565Z,27.45
2022-12-05T18:18:15.179Z,23.40
2022-12-05T18:20:41.542Z,26.92
2022-12-05T18:23:07.948Z,23.73
2022-12-05T18:25:34.325Z,24.30
2022-12-05T18:28:00.767Z,22.48
2022-12-05T18:30:27.132Z,22.88
2022-12-05T18:32:53.600Z,23.75
2022-12-05T18:35:39.836Z,21.38
2022-12-05T18:38:12.396Z,21.55
2022-12-05T18:40:38.977Z,20.30
2022-12-05T18:43:05.527Z,21.05
2022-12-05T18:45:31.976Z,21.83
2022-12-05T18:48:09.773Z,21.85
2022-12-05T18:50:42.602Z,23.00
2022-12-05T18:53:08.976Z,24.67
2022-12-05T18:56:04.777Z,23.30
2022-12-05T18:58:21.678Z,21.67
2022-12-05T19:00:48.063Z,21.98
2022-12-05T19:03:14.466Z,20.75
2022-12-05T19:05:42.685Z,20.23
2022-12-05T19:08:09.072Z,23.48
2022-12-05T19:10:36.007Z,24.08
2022-12-05T19:13:02.414Z,24.02
2022-12-05T19:15:28.819Z,27.50
2022-12-05T19:17:55.241Z,28.65
2022-12-05T19:20:21.737Z,23.73
2022-12-05T19:22:48.129Z,21.83
2022-12-05T19:25:14.514Z,21.02
2022-12-05T19:27:41.007Z,21.00
2022-12-05T19:30:10.087Z,21.90
2022-12-05T19:32:40.374Z,22.52
2022-12-05T19:35:07.609Z,21.08
2022-12-05T19:37:34.467Z,20.63
2022-12-05T19:40:01.112Z,22.55
2022-12-05T19:42:29.488Z,22.42
2022-12-05T19:44:55.928Z,23.58
2022-12-05T19:47:22.534Z,30.10
2022-12-05T19:49:49.318Z,28.27
2022-12-05T19:52:18.020Z,23.98
2022-12-05T19:54:45.009Z,22.98
2022-12-05T19:57:11.781Z,23.50
2022-12-05T19:59:38.239Z,23.67
2022-12-05T20:02:04.704Z,22.38
2022-12-05T20:04:31.202Z,22.88
2022-12-05T20:06:57.626Z,24.20
2022-12-05T20:09:24.085Z,22.08
2022-12-05T20:11:55.160Z,23.67
2022-12-05T20:14:23.407Z,23.25
2022-12-05T20:16:50.190Z,23.98
2022-12-05T20:19:16.705Z,23.80
2022-12-05T20:21:44.316Z,24.27
2022-12-05T20:24:10.832Z,23.50
2022-12-05T20:26:39.863Z,25.42
2022-12-05T20:29:06.781Z,24.38
2022-12-05T20:31:35.862Z,23.55
2022-12-05T20:34:02.705Z,22.63
2022-12-05T20:36:31.323Z,23.95
2022-12-05T20:39:00.068Z,23.00
2022-12-05T20:41:26.872Z,24.30
2022-12-05T20:43:55.486Z,23.88
2022-12-05T20:46:23.014Z,22.27
2022-12-05T20:48:50.617Z,24.33
2022-12-05T20:51:20.863Z,24.25
2022-12-05T20:53:47.383Z,24.95
2022-12-05T20:56:19.095Z,22.92
2022-12-05T20:58:47.693Z,17.65
2022-12-05T21:01:15.490Z,23.50
2022-12-05T21:03:43.875Z,23.42
2022-12-05T21:06:47.223Z,22.27
2022-12-05T21:09:26.227Z,22.10
2022-12-05T21:11:56.117Z,21.58
2022-12-05T21:14:23.144Z,23.13
2022-12-05T21:16:49.786Z,23.00
2022-12-05T21:19:16.201Z,22.60
2022-12-05T21:21:42.667Z,23.20
2022-12-05T21:24:09.680Z,22.33
2022-12-05T21:26:36.151Z,22.10
2022-12-05T21:29:03.901Z,24.00
2022-12-05T21:31:36.151Z,24.38
2022-12-05T21:36:32.226Z,22.88
2022-12-05T21:38:59.166Z,22.20
2022-12-05T21:41:25.924Z,23.38
2022-12-05T21:43:55.489Z,23.38
2022-12-05T21:46:23.559Z,21.63
2022-12-05T21:48:50.008Z,22.67
2022-12-05T21:51:16.708Z,21.85
2022-12-05T21:53:43.155Z,23.85
2022-12-05T21:56:15.490Z,22.45
2022-12-05T21:58:42.735Z,22.13
2022-12-05T22:01:11.254Z,22.90
2022-12-05T22:03:38.341Z,22.45
2022-12-05T22:06:05.948Z,21.35
2022-12-05T22:08:32.787Z,22.45
2022-12-05T22:11:15.701Z,23.65
2022-12-05T22:13:42.552Z,23.27
2022-12-05T22:16:09.178Z,23.25
2022-12-05T22:18:35.870Z,22.75
2022-12-05T22:21:11.906Z,25.10
2022-12-05T22:23:38.732Z,22.85
2022-12-05T22:26:07.859Z,24.17
2022-12-05T22:28:34.986Z,23.17
2022-12-05T22:31:03.326Z,23.60
2022-12-05T22:33:29.800Z,22.88
2022-12-05T22:35:58.406Z,23.35
2022-12-05T22:38:28.676Z,24.38
2022-12-05T22:41:00.226Z,22.88
2022-12-05T22:43:27.712Z,22.35
2022-12-05T22:45:54.334Z,22.20
2022-12-05T22:48:21.120Z,23.38
2022-12-05T22:50:49.365Z,22.13
2022-12-05T22:53:18.123Z,23.27
2022-12-05T22:55:44.692Z,22.08
2022-12-05T22:58:11.331Z,22.02
2022-12-05T23:00:37.711Z,22.77
2022-12-05T23:03:04.770Z,22.95
2022-12-05T23:05:31.192Z,21.02
2022-12-05T23:07:57.668Z,22.02
2022-12-05T23:10:24.235Z,20.15
2022-12-05T23:12:50.716Z,20.77
2022-12-05T23:15:17.128Z,20.20
2022-12-05T23:17:43.777Z,21.48
2022-12-05T23:20:10.511Z,21.30
2022-12-05T23:22:36.912Z,21.08
2022-12-05T23:25:03.459Z,21.10
2022-12-05T23:27:29.842Z,20.48
2022-12-05T23:29:56.586Z,21.85
2022-12-05T23:32:23.202Z,21.50
2022-12-05T23:34:49.619Z,22.48
2022-12-05T23:37:16.060Z,23.17
2022-12-05T23:39:42.515Z,23.95
2022-12-05T23:42:14.928Z,25.27
2022-12-05T23:44:41.663Z,23.70
2022-12-05T23:47:08.100Z,23.60
2022-12-05T23:49:34.559Z,24.98
2022-12-05T23:52:00.939Z,24.70
2022-12-05T23:54:27.475Z,24.52
2022-12-05T23:56:53.896Z,24.25
2022-12-05T23:59:20.399Z,25.67
